Harrison, Montana
Current Conditions -  °F | °C
As of 10:56 AM on Friday 19 Dec 2014 (Local Time) from KBZN Reporting Station
Clear Clear  
Wind Chill: 32°   Ceiling: Unl
Heat Index: 32°   Visibility: 10mi
Dew Point: 23°   Wind: 3mph
Humidity: 69%   Direction: 250°WSW
Pressure: 29.96"   Gusts: NA
Location:  45.7°N, 111.78°W
Report Text: KBZN 191756Z 25003KT 10SM CLR 00/M05 A2996 RMK AO2 SLP182 T00001050 10000 21067 57006
Loading
Personal Weather Stations






























Interactive Weather Map New forecast layout! Learn more

10-Day Weather Forecast

Advertisements
Track Severe Weather on mobile